Time;durP1;ratioP1;P1;durP2;ratioP2;P2;SDS_P1;SDS_P2;PMS_P1;PMS_P2;Temp;Humidity;BMP_temperature;BMP_pressure;BME280_temperature;BME280_humidity;BME280_pressure;Samples;Min_cycle;Max_cycle;Signal;HPM_P1;HPM_P2
2022/01/05 00:02:07;;;;;;;1.45;1.00;;;;;23.60;99624.00;;;;5089930;28;20050;-75
2022/01/05 00:04:37;;;;;;;0.10;0.10;;;;;23.60;99648.00;;;;5089969;28;20055;-76
2022/01/05 00:07:07;;;;;;;0.43;0.43;;;;;23.50;99635.00;;;;5088018;28;20108;-76
2022/01/05 00:09:36;;;;;;;0.00;0.00;;;;;23.50;99638.00;;;;5087800;28;20047;-77
2022/01/05 00:12:06;;;;;;;0.00;0.00;;;;;23.50;99636.00;;;;5087814;28;20036;-77
2022/01/05 00:14:36;;;;;;;1.35;0.35;;;;;23.40;99643.00;;;;5083881;28;20047;-77
2022/01/05 00:17:05;;;;;;;0.30;0.30;;;;;23.50;99645.00;;;;5077767;28;20044;-76
2022/01/05 00:19:34;;;;;;;0.00;0.00;;;;;23.50;99637.00;;;;5080037;28;20047;-77
2022/01/05 00:22:05;;;;;;;0.25;0.08;;;;;23.40;99636.00;;;;5078969;28;20119;-77
2022/01/05 00:24:36;;;;;;;0.20;0.10;;;;;23.30;99626.00;;;;5077858;28;20040;-77
2022/01/05 00:27:05;;;;;;;0.00;0.00;;;;;23.20;99635.00;;;;5078351;28;20044;-76
2022/01/05 00:29:35;;;;;;;0.00;0.00;;;;;23.20;99637.00;;;;5080322;28;20037;-75
2022/01/05 00:32:05;;;;;;;0.20;0.20;;;;;23.20;99650.00;;;;5077831;28;20036;-75
2022/01/05 00:34:36;;;;;;;0.00;0.00;;;;;23.20;99650.00;;;;5079609;28;20659;-76
2022/01/05 00:37:06;;;;;;;0.00;0.00;;;;;23.20;99640.00;;;;5078047;28;20271;-76
2022/01/05 00:39:35;;;;;;;0.10;0.10;;;;;23.10;99640.00;;;;5077981;28;20048;-75
2022/01/05 00:42:07;;;;;;;0.00;0.00;;;;;23.10;99648.00;;;;5078105;28;20036;-74
2022/01/05 00:44:36;;;;;;;0.00;0.00;;;;;23.00;99637.00;;;;5077392;28;20548;-75
2022/01/05 00:47:06;;;;;;;0.00;0.00;;;;;23.00;99623.00;;;;5077375;28;20029;-77
2022/01/05 00:49:35;;;;;;;0.20;0.20;;;;;22.90;99643.00;;;;5077244;28;20036;-76
2022/01/05 00:52:05;;;;;;;0.00;0.00;;;;;22.90;99636.00;;;;5078147;28;20503;-77
2022/01/05 00:54:35;;;;;;;0.00;0.00;;;;;22.80;99635.00;;;;5076694;28;20051;-77
2022/01/05 00:57:04;;;;;;;0.00;0.00;;;;;22.80;99636.00;;;;5078727;28;20040;-76
2022/01/05 00:59:34;;;;;;;2.25;1.45;;;;;22.80;99632.00;;;;5079294;28;20113;-78
2022/01/05 01:02:05;;;;;;;0.00;0.00;;;;;22.70;99655.00;;;;5078045;28;20036;-74
2022/01/05 01:04:34;;;;;;;0.00;0.00;;;;;22.60;99647.00;;;;5071599;28;20040;-77
2022/01/05 01:07:04;;;;;;;0.00;0.00;;;;;22.60;99635.00;;;;5086538;28;20044;-76
2022/01/05 01:09:34;;;;;;;0.00;0.00;;;;;22.60;99645.00;;;;5085892;28;20052;-76
2022/01/05 01:12:05;;;;;;;0.00;0.00;;;;;22.60;99631.00;;;;5087973;28;20040;-77
2022/01/05 01:14:34;;;;;;;0.00;0.00;;;;;22.60;99642.00;;;;5089025;28;20040;-75
2022/01/05 01:17:04;;;;;;;0.00;0.00;;;;;22.50;99637.00;;;;5070418;28;20044;-77
2022/01/05 01:19:33;;;;;;;0.00;0.00;;;;;22.50;99644.00;;;;5087990;28;20036;-76
2022/01/05 01:22:03;;;;;;;0.00;0.00;;;;;22.50;99644.00;;;;5087192;28;20063;-74
2022/01/05 01:24:33;;;;;;;0.00;0.00;;;;;22.50;99641.00;;;;5087522;28;20093;-77
2022/01/05 01:27:02;;;;;;;0.00;0.00;;;;;22.50;99632.00;;;;5088394;28;20047;-77
2022/01/05 01:29:32;;;;;;;0.00;0.00;;;;;22.50;99647.00;;;;5088742;28;20055;-78
2022/01/05 01:32:04;;;;;;;0.00;0.00;;;;;22.50;99624.00;;;;5088984;28;20058;-74
2022/01/05 01:34:34;;;;;;;0.00;0.00;;;;;22.50;99639.00;;;;5087353;28;20036;-77
2022/01/05 01:37:03;;;;;;;0.00;0.00;;;;;22.50;99634.00;;;;5088510;28;20044;-76
2022/01/05 01:39:33;;;;;;;0.00;0.00;;;;;22.60;99635.00;;;;5087648;28;20040;-76
2022/01/05 01:42:03;;;;;;;0.00;0.00;;;;;22.60;99620.00;;;;5088200;28;20117;-75
2022/01/05 01:44:33;;;;;;;0.00;0.00;;;;;22.60;99643.00;;;;5088177;28;20044;-77
2022/01/05 01:47:03;;;;;;;0.00;0.00;;;;;22.70;99621.00;;;;5088884;28;20520;-77
2022/01/05 01:49:32;;;;;;;0.00;0.00;;;;;22.70;99615.00;;;;5088412;28;20047;-75
2022/01/05 01:52:03;;;;;;;0.00;0.00;;;;;22.70;99614.00;;;;5086738;28;20048;-76
2022/01/05 01:54:35;;;;;;;0.00;0.00;;;;;22.70;99618.00;;;;5086970;28;20505;-75
2022/01/05 01:57:06;;;;;;;0.00;0.00;;;;;22.70;99618.00;;;;5087746;28;20056;-75
2022/01/05 01:59:36;;;;;;;0.00;0.00;;;;;22.80;99610.00;;;;5087798;28;20475;-75
2022/01/05 02:02:08;;;;;;;0.00;0.00;;;;;22.70;99607.00;;;;5086568;28;20692;-75
2022/01/05 02:04:39;;;;;;;0.17;0.17;;;;;22.70;99617.00;;;;5087676;28;20082;-77
2022/01/05 02:07:08;;;;;;;0.00;0.00;;;;;22.70;99603.00;;;;5087591;28;20513;-78
2022/01/05 02:09:40;;;;;;;0.00;0.00;;;;;22.70;99619.00;;;;5088246;28;20044;-75
2022/01/05 02:12:11;;;;;;;0.00;0.00;;;;;22.60;99609.00;;;;5087804;28;20106;-78
2022/01/05 02:14:40;;;;;;;0.00;0.00;;;;;22.60;99602.00;;;;5087849;28;20122;-77
2022/01/05 02:17:20;;;;;;;0.65;0.63;;;;;22.50;99608.00;;;;5087637;28;20047;-77
2022/01/05 02:19:50;;;;;;;0.00;0.00;;;;;22.50;99619.00;;;;5086815;28;20044;-77
2022/01/05 02:22:19;;;;;;;0.00;0.00;;;;;22.50;99589.00;;;;5086082;28;20054;-76
2022/01/05 02:24:48;;;;;;;0.00;0.00;;;;;22.50;99584.00;;;;5085563;28;20399;-78
2022/01/05 02:27:18;;;;;;;0.00;0.00;;;;;22.50;99585.00;;;;5087251;28;20040;-75
2022/01/05 02:29:47;;;;;;;0.00;0.00;;;;;22.50;99590.00;;;;5087131;28;20407;-76
2022/01/05 02:32:17;;;;;;;0.00;0.00;;;;;22.40;99593.00;;;;5087953;28;20669;-76
2022/01/05 02:34:46;;;;;;;0.00;0.00;;;;;22.40;99586.00;;;;5087184;28;20101;-76
2022/01/05 02:37:15;;;;;;;0.00;0.00;;;;;22.40;99592.00;;;;5084986;28;20049;-76
2022/01/05 02:39:45;;;;;;;0.00;0.00;;;;;22.30;99589.00;;;;5083005;28;20563;-77
2022/01/05 02:42:28;;;;;;;0.00;0.00;;;;;22.30;99582.00;;;;5083095;28;20064;-74
2022/01/05 02:44:58;;;;;;;0.00;0.00;;;;;22.30;99588.00;;;;5085835;28;20403;-74
2022/01/05 02:47:27;;;;;;;0.00;0.00;;;;;22.30;99566.00;;;;5086885;28;20089;-75
2022/01/05 02:50:00;;;;;;;0.00;0.00;;;;;22.30;99594.00;;;;5086508;28;20059;-73
2022/01/05 02:52:30;;;;;;;0.00;0.00;;;;;22.30;99591.00;;;;5087235;28;20051;-76
2022/01/05 02:55:02;;;;;;;0.00;0.00;;;;;22.30;99582.00;;;;5086785;28;20101;-75
2022/01/05 02:57:32;;;;;;;0.00;0.00;;;;;22.30;99582.00;;;;5086635;28;20109;-74
2022/01/05 03:00:03;;;;;;;0.00;0.00;;;;;22.30;99569.00;;;;5086451;28;20043;-77
2022/01/05 03:02:33;;;;;;;0.00;0.00;;;;;22.30;99575.00;;;;5086643;28;20032;-75
2022/01/05 03:05:04;;;;;;;0.00;0.00;;;;;22.30;99536.00;;;;5087743;28;20131;-74
2022/01/05 03:07:38;;;;;;;0.20;0.20;;;;;22.30;99564.00;;;;5086797;28;20040;-74
2022/01/05 03:10:10;;;;;;;0.00;0.00;;;;;22.20;99541.00;;;;5086159;28;20043;-75
2022/01/05 03:12:42;;;;;;;0.00;0.00;;;;;22.20;99548.00;;;;5087008;28;20040;-76
2022/01/05 03:15:12;;;;;;;0.00;0.00;;;;;22.20;99548.00;;;;5085750;28;20062;-75
2022/01/05 03:17:43;;;;;;;0.00;0.00;;;;;22.10;99536.00;;;;5087071;28;20055;-75
2022/01/05 03:20:14;;;;;;;0.00;0.00;;;;;22.10;99544.00;;;;5086856;28;20512;-76
2022/01/05 03:22:44;;;;;;;0.00;0.00;;;;;22.10;99543.00;;;;5086000;28;20052;-73
2022/01/05 03:25:18;;;;;;;0.00;0.00;;;;;22.00;99523.00;;;;5085911;28;20052;-75
2022/01/05 03:27:50;;;;;;;0.00;0.00;;;;;22.00;99527.00;;;;5085164;28;20044;-74
2022/01/05 03:30:25;;;;;;;0.00;0.00;;;;;22.00;99530.00;;;;5085871;28;20040;-77
2022/01/05 03:35:34;;;;;;;0.00;0.00;;;;;21.80;99517.00;;;;5085818;28;20036;-74
2022/01/05 03:38:05;;;;;;;0.00;0.00;;;;;21.70;99524.00;;;;5086942;28;20048;-74
2022/01/05 03:40:35;;;;;;;0.00;0.00;;;;;21.60;99511.00;;;;5085988;28;20452;-75
2022/01/05 03:43:06;;;;;;;0.00;0.00;;;;;21.60;99512.00;;;;5085178;28;20305;-76
2022/01/05 03:45:37;;;;;;;0.75;0.38;;;;;21.60;99509.00;;;;5086542;28;20055;-74
2022/01/05 03:48:09;;;;;;;0.00;0.00;;;;;21.60;99494.00;;;;5086179;28;20040;-76
2022/01/05 03:50:39;;;;;;;0.00;0.00;;;;;21.50;99480.00;;;;5086592;28;20067;-74
2022/01/05 03:53:10;;;;;;;0.10;0.10;;;;;21.40;99487.00;;;;5084844;28;20048;-75
2022/01/05 03:55:41;;;;;;;0.30;0.30;;;;;21.30;99468.00;;;;5084921;28;20621;-75
2022/01/05 03:58:11;;;;;;;0.57;0.47;;;;;21.20;99472.00;;;;5086381;28;20040;-73
2022/01/05 04:00:49;;;;;;;0.05;0.03;;;;;21.20;99462.00;;;;5085765;28;20040;-73
2022/01/05 04:03:19;;;;;;;0.00;0.00;;;;;21.10;99461.00;;;;5084510;28;20123;-75
2022/01/05 04:05:49;;;;;;;0.32;0.10;;;;;21.10;99452.00;;;;5087408;28;20048;-72
2022/01/05 04:08:18;;;;;;;0.00;0.00;;;;;21.00;99450.00;;;;5085867;28;20052;-73
2022/01/05 04:10:48;;;;;;;0.10;0.10;;;;;21.00;99440.00;;;;5085673;28;20048;-76
2022/01/05 04:13:18;;;;;;;1.85;0.43;;;;;21.00;99434.00;;;;5088982;28;20032;-75
2022/01/05 04:15:47;;;;;;;0.00;0.00;;;;;21.00;99422.00;;;;5089897;28;20036;-77
2022/01/05 04:18:17;;;;;;;0.13;0.05;;;;;20.90;99416.00;;;;5088281;28;20052;-77
2022/01/05 04:20:46;;;;;;;0.00;0.00;;;;;20.90;99418.00;;;;5088303;28;20048;-73
2022/01/05 04:23:15;;;;;;;0.50;0.50;;;;;20.80;99429.00;;;;5090631;28;20518;-76
2022/01/05 04:25:45;;;;;;;0.00;0.00;;;;;20.80;99409.00;;;;5089608;28;20601;-77
2022/01/05 04:28:14;;;;;;;0.00;0.00;;;;;20.70;99423.00;;;;5089189;28;20047;-75
2022/01/05 04:30:44;;;;;;;0.00;0.00;;;;;20.80;99394.00;;;;5089777;28;20335;-76
2022/01/05 04:33:13;;;;;;;0.00;0.00;;;;;20.70;99417.00;;;;5071639;28;20051;-78
2022/01/05 04:36:03;;;;;;;0.00;0.00;;;;;20.70;99420.00;;;;5088734;28;20056;-75
2022/01/05 04:38:33;;;;;;;0.20;0.17;;;;;20.70;99404.00;;;;5089549;28;20051;-73
2022/01/05 04:41:03;;;;;;;0.05;0.00;;;;;20.60;99385.00;;;;5089629;28;20511;-74
2022/01/05 04:43:32;;;;;;;0.00;0.00;;;;;20.60;99380.00;;;;5090123;28;20064;-73
2022/01/05 04:46:01;;;;;;;0.40;0.10;;;;;20.60;99392.00;;;;5089244;28;20040;-74
2022/01/05 04:48:31;;;;;;;0.05;0.05;;;;;20.50;99381.00;;;;5089089;28;20032;-76
2022/01/05 04:51:00;;;;;;;0.00;0.00;;;;;20.50;99372.00;;;;5088101;28;20048;-77
2022/01/05 04:53:30;;;;;;;0.00;0.00;;;;;20.50;99372.00;;;;5089528;28;20040;-76
2022/01/05 04:55:59;;;;;;;0.00;0.00;;;;;20.40;99365.00;;;;5088647;28;20056;-76
2022/01/05 04:58:30;;;;;;;0.00;0.00;;;;;20.40;99371.00;;;;5088260;28;20047;-74
2022/01/05 05:01:00;;;;;;;0.00;0.00;;;;;20.30;99378.00;;;;5088621;28;20119;-74
2022/01/05 05:03:30;;;;;;;0.00;0.00;;;;;20.30;99388.00;;;;5088404;28;20101;-74
2022/01/05 05:05:59;;;;;;;0.00;0.00;;;;;20.30;99380.00;;;;5088691;28;20040;-75
2022/01/05 05:08:29;;;;;;;0.10;0.10;;;;;20.20;99369.00;;;;5089126;28;20032;-77
2022/01/05 05:10:59;;;;;;;0.00;0.00;;;;;20.20;99369.00;;;;5088958;28;20043;-77
2022/01/05 05:13:28;;;;;;;0.00;0.00;;;;;20.20;99374.00;;;;5088482;28;20086;-74
2022/01/05 05:15:58;;;;;;;0.30;0.30;;;;;20.10;99382.00;;;;5088803;28;20074;-74
2022/01/05 05:18:31;;;;;;;0.00;0.00;;;;;20.20;99380.00;;;;5088933;28;20566;-74
2022/01/05 05:21:01;;;;;;;0.00;0.00;;;;;20.20;99382.00;;;;5088584;28;20043;-73
2022/01/05 05:23:30;;;;;;;0.00;0.00;;;;;20.20;99390.00;;;;5086685;28;20552;-74
2022/01/05 05:25:59;;;;;;;0.00;0.00;;;;;20.10;99402.00;;;;5087801;28;20047;-74
2022/01/05 05:28:29;;;;;;;0.10;0.10;;;;;20.20;99393.00;;;;5088276;28;20051;-74
2022/01/05 05:30:59;;;;;;;0.00;0.00;;;;;20.20;99401.00;;;;5088815;28;20498;-76
2022/01/05 05:33:34;;;;;;;0.00;0.00;;;;;20.20;99396.00;;;;5089475;28;20453;-73
2022/01/05 05:36:05;;;;;;;0.10;0.10;;;;;20.20;99405.00;;;;5089564;28;20430;-74
2022/01/05 05:38:35;;;;;;;0.00;0.00;;;;;20.20;99402.00;;;;5088228;28;20502;-75
2022/01/05 05:41:04;;;;;;;0.00;0.00;;;;;20.30;99412.00;;;;5089176;28;20367;-74
2022/01/05 05:43:34;;;;;;;0.00;0.00;;;;;20.30;99413.00;;;;5089655;28;20052;-73
2022/01/05 05:46:03;;;;;;;0.00;0.00;;;;;20.40;99409.00;;;;5088841;28;20071;-76
2022/01/05 05:48:33;;;;;;;0.00;0.00;;;;;20.40;99399.00;;;;5086165;28;20062;-77
2022/01/05 05:51:02;;;;;;;0.00;0.00;;;;;20.40;99410.00;;;;5087794;28;20055;-75
2022/01/05 05:53:32;;;;;;;0.00;0.00;;;;;20.40;99399.00;;;;5088664;28;20056;-76
2022/01/05 05:56:01;;;;;;;0.00;0.00;;;;;20.50;99408.00;;;;5088241;28;20126;-74
2022/01/05 05:58:31;;;;;;;0.00;0.00;;;;;20.50;99423.00;;;;5088464;28;20119;-74
2022/01/05 06:01:00;;;;;;;0.00;0.00;;;;;20.50;99399.00;;;;5088005;28;20044;-75
2022/01/05 06:03:30;;;;;;;0.00;0.00;;;;;20.40;99395.00;;;;5085721;28;20079;-75
2022/01/05 06:05:59;;;;;;;0.00;0.00;;;;;20.40;99396.00;;;;5088603;28;20048;-75
2022/01/05 06:08:28;;;;;;;0.00;0.00;;;;;20.40;99405.00;;;;5087587;28;20915;-75
2022/01/05 06:10:58;;;;;;;0.00;0.00;;;;;20.50;99398.00;;;;5087042;28;20060;-75
2022/01/05 06:13:28;;;;;;;0.00;0.00;;;;;20.50;99395.00;;;;5087380;28;20097;-74
2022/01/05 06:15:57;;;;;;;0.00;0.00;;;;;20.50;99396.00;;;;5087435;28;20074;-76
2022/01/05 06:18:27;;;;;;;0.00;0.00;;;;;20.50;99411.00;;;;5087562;28;20036;-76
2022/01/05 06:20:56;;;;;;;0.00;0.00;;;;;20.50;99403.00;;;;5088136;28;20491;-74
2022/01/05 06:23:25;;;;;;;0.00;0.00;;;;;20.50;99411.00;;;;5087602;28;20044;-76
2022/01/05 06:25:55;;;;;;;0.00;0.00;;;;;20.50;99432.00;;;;5087376;28;20044;-77
2022/01/05 06:28:24;;;;;;;0.00;0.00;;;;;20.50;99411.00;;;;5087331;28;20089;-74
2022/01/05 06:30:53;;;;;;;0.00;0.00;;;;;20.50;99423.00;;;;5086748;28;20040;-75
2022/01/05 06:33:23;;;;;;;0.00;0.00;;;;;20.60;99414.00;;;;5086930;28;20052;-76
2022/01/05 06:35:52;;;;;;;0.00;0.00;;;;;20.50;99413.00;;;;5085773;28;20052;-74
2022/01/05 06:38:22;;;;;;;0.00;0.00;;;;;20.50;99419.00;;;;5087573;28;20044;-76
2022/01/05 06:40:51;;;;;;;0.00;0.00;;;;;20.50;99410.00;;;;5086981;28;20036;-77
2022/01/05 06:43:20;;;;;;;0.00;0.00;;;;;20.40;99417.00;;;;5088177;28;20441;-75
2022/01/05 06:45:50;;;;;;;0.00;0.00;;;;;20.50;99416.00;;;;5087378;28;20048;-77
2022/01/05 06:48:20;;;;;;;0.00;0.00;;;;;20.50;99423.00;;;;5086523;28;20036;-74
2022/01/05 06:50:49;;;;;;;0.00;0.00;;;;;20.40;99419.00;;;;5086571;28;20587;-77
2022/01/05 06:53:19;;;;;;;0.00;0.00;;;;;20.40;99450.00;;;;5085630;28;20599;-74
2022/01/05 06:55:48;;;;;;;0.00;0.00;;;;;20.50;99444.00;;;;5086665;28;20056;-76
2022/01/05 06:58:18;;;;;;;0.00;0.00;;;;;20.50;99436.00;;;;5086890;28;20045;-77
2022/01/05 07:00:47;;;;;;;0.00;0.00;;;;;20.50;99441.00;;;;5086799;28;20047;-77
2022/01/05 07:03:16;;;;;;;0.00;0.00;;;;;20.50;99447.00;;;;5086443;28;20498;-76
2022/01/05 07:05:46;;;;;;;0.00;0.00;;;;;20.50;99457.00;;;;5087290;28;20044;-74
2022/01/05 07:08:15;;;;;;;0.00;0.00;;;;;20.40;99459.00;;;;5086550;28;20032;-74
2022/01/05 07:10:45;;;;;;;0.00;0.00;;;;;20.40;99452.00;;;;5086847;28;20074;-75
2022/01/05 07:13:14;;;;;;;0.00;0.00;;;;;20.40;99468.00;;;;5084756;28;20044;-76
2022/01/05 07:15:43;;;;;;;0.13;0.00;;;;;20.40;99464.00;;;;5085497;28;20048;-75
2022/01/05 07:18:13;;;;;;;0.00;0.00;;;;;20.40;99465.00;;;;5086802;28;20093;-77
2022/01/05 07:20:42;;;;;;;0.00;0.00;;;;;20.40;99477.00;;;;5086353;28;20579;-77
2022/01/05 07:23:14;;;;;;;0.00;0.00;;;;;20.40;99463.00;;;;5086268;28;20044;-74
2022/01/05 07:25:44;;;;;;;0.00;0.00;;;;;20.40;99465.00;;;;5086680;28;20044;-76
2022/01/05 07:28:13;;;;;;;0.00;0.00;;;;;20.40;99459.00;;;;5086957;28;20126;-74
2022/01/05 07:30:42;;;;;;;0.00;0.00;;;;;20.40;99460.00;;;;5084851;28;20047;-77
2022/01/05 07:33:12;;;;;;;0.00;0.00;;;;;20.40;99462.00;;;;5085605;28;20044;-74
2022/01/05 07:35:42;;;;;;;0.00;0.00;;;;;20.40;99460.00;;;;5086514;28;20410;-75
2022/01/05 07:38:12;;;;;;;0.00;0.00;;;;;20.40;99459.00;;;;5086828;28;20047;-77
2022/01/05 07:40:41;;;;;;;0.08;0.08;;;;;20.40;99464.00;;;;5086450;28;20051;-77
2022/01/05 07:43:10;;;;;;;0.00;0.00;;;;;20.40;99473.00;;;;5086419;28;20048;-78
2022/01/05 07:45:40;;;;;;;0.00;0.00;;;;;20.40;99472.00;;;;5084746;28;20130;-75
2022/01/05 07:48:09;;;;;;;0.00;0.00;;;;;20.40;99473.00;;;;5089635;28;20411;-77
2022/01/05 07:50:39;;;;;;;0.00;0.00;;;;;20.40;99474.00;;;;5089272;28;20044;-77
2022/01/05 07:53:08;;;;;;;0.00;0.00;;;;;20.40;99484.00;;;;5090510;28;20036;-76
2022/01/05 07:55:37;;;;;;;0.00;0.00;;;;;20.30;99476.00;;;;5089890;28;20043;-75
2022/01/05 07:58:08;;;;;;;0.00;0.00;;;;;20.30;99491.00;;;;5089638;28;20032;-75
2022/01/05 08:00:37;;;;;;;0.00;0.00;;;;;20.30;99504.00;;;;5089077;28;20051;-75
2022/01/05 08:03:07;;;;;;;0.03;0.03;;;;;20.30;99488.00;;;;5089882;28;20115;-75
2022/01/05 08:05:37;;;;;;;0.00;0.00;;;;;20.20;99502.00;;;;5089073;28;20437;-77
2022/01/05 08:08:06;;;;;;;0.00;0.00;;;;;20.30;99493.00;;;;5090562;28;20161;-74
2022/01/05 08:10:36;;;;;;;0.00;0.00;;;;;20.30;99504.00;;;;5089882;28;20097;-75
2022/01/05 08:13:05;;;;;;;0.00;0.00;;;;;20.30;99515.00;;;;5090545;28;20032;-74
2022/01/05 08:15:34;;;;;;;0.00;0.00;;;;;20.30;99509.00;;;;5089964;28;20040;-74
2022/01/05 08:18:04;;;;;;;0.00;0.00;;;;;20.30;99502.00;;;;5088695;28;20052;-78
2022/01/05 08:20:33;;;;;;;0.00;0.00;;;;;20.30;99534.00;;;;5089735;28;20089;-77
2022/01/05 08:23:03;;;;;;;0.00;0.00;;;;;20.30;99537.00;;;;5088175;28;20051;-75
2022/01/05 08:25:32;;;;;;;0.00;0.00;;;;;20.30;99540.00;;;;5089661;28;20044;-78
2022/01/05 08:28:02;;;;;;;0.00;0.00;;;;;20.30;99542.00;;;;5089364;28;20555;-77
2022/01/05 08:30:34;;;;;;;0.00;0.00;;;;;20.40;99533.00;;;;5088349;28;20130;-77
2022/01/05 08:33:04;;;;;;;0.00;0.00;;;;;20.40;99547.00;;;;5089913;28;20047;-75
2022/01/05 08:35:34;;;;;;;0.00;0.00;;;;;20.40;99547.00;;;;5090311;28;20489;-74
2022/01/05 08:38:04;;;;;;;0.03;0.03;;;;;20.50;99566.00;;;;5089594;28;20393;-74
2022/01/05 08:40:35;;;;;;;0.00;0.00;;;;;20.50;99548.00;;;;5089682;28;20051;-74
2022/01/05 08:43:06;;;;;;;0.00;0.00;;;;;20.60;99560.00;;;;5088293;28;20056;-78
2022/01/05 08:45:35;;;;;;;0.00;0.00;;;;;20.70;99562.00;;;;5089254;28;20044;-77
2022/01/05 08:48:05;;;;;;;0.00;0.00;;;;;20.70;99576.00;;;;5088948;28;20040;-77
2022/01/05 08:50:35;;;;;;;0.00;0.00;;;;;20.70;99554.00;;;;5089396;28;20047;-77
2022/01/05 08:53:05;;;;;;;0.00;0.00;;;;;20.80;99562.00;;;;5089353;28;20048;-79
2022/01/05 08:55:41;;;;;;;0.00;0.00;;;;;20.90;99583.00;;;;5088053;28;20044;-74
2022/01/05 08:58:14;;;;;;;0.05;0.05;;;;;21.00;99568.00;;;;5087990;28;20048;-73
2022/01/05 09:00:43;;;;;;;0.10;0.10;;;;;21.10;99574.00;;;;5087371;28;20130;-77
2022/01/05 09:03:17;;;;;;;0.00;0.00;;;;;21.20;99574.00;;;;5088942;28;20074;-78
2022/01/05 09:05:47;;;;;;;0.00;0.00;;;;;21.40;99592.00;;;;5089122;28;20098;-74
2022/01/05 09:08:17;;;;;;;0.00;0.00;;;;;21.50;99581.00;;;;5089647;28;20105;-75
2022/01/05 09:10:46;;;;;;;0.00;0.00;;;;;21.70;99591.00;;;;5094103;28;20066;-75
2022/01/05 09:13:16;;;;;;;0.10;0.00;;;;;21.70;99592.00;;;;5094045;28;20051;-75
2022/01/05 09:15:46;;;;;;;0.20;0.17;;;;;21.70;99589.00;;;;5094403;28;20119;-77
2022/01/05 09:18:16;;;;;;;0.00;0.00;;;;;21.80;99596.00;;;;5096362;28;20347;-77
2022/01/05 09:20:45;;;;;;;0.00;0.00;;;;;21.90;99591.00;;;;5094653;28;20123;-74
2022/01/05 09:23:15;;;;;;;0.00;0.00;;;;;21.90;99593.00;;;;5093688;28;20052;-74
2022/01/05 09:25:44;;;;;;;0.00;0.00;;;;;21.90;99602.00;;;;5111534;28;20032;-77
2022/01/05 09:28:14;;;;;;;0.00;0.00;;;;;21.90;99603.00;;;;5114683;28;20028;-78
2022/01/05 09:30:45;;;;;;;0.08;0.08;;;;;21.90;99617.00;;;;5113486;28;20031;-77
2022/01/05 09:33:15;;;;;;;0.00;0.00;;;;;21.90;99625.00;;;;5114106;28;20056;-76
2022/01/05 09:35:49;;;;;;;0.00;0.00;;;;;22.00;99624.00;;;;5113117;28;20042;-77
2022/01/05 09:38:34;;;;;;;0.00;0.00;;;;;22.10;99627.00;;;;5114516;28;20070;-76
2022/01/05 09:43:56;;;;;;;2.65;0.65;;;;;22.50;99634.00;;;;5089100;28;20040;-77
2022/01/05 09:46:26;;;;;;;0.00;0.00;;;;;22.50;99645.00;;;;5088324;28;20044;-75
2022/01/05 09:49:10;;;;;;;0.93;0.93;;;;;22.70;99636.00;;;;5088044;28;20040;-77
2022/01/05 09:51:43;;;;;;;0.00;0.00;;;;;22.80;99645.00;;;;5086738;28;20051;-74
2022/01/05 09:54:14;;;;;;;0.00;0.00;;;;;22.90;99633.00;;;;5088301;28;20045;-77
2022/01/05 09:57:05;;;;;;;0.00;0.00;;;;;23.00;99639.00;;;;5087401;28;20047;-77
2022/01/05 09:59:36;;;;;;;0.00;0.00;;;;;23.00;99639.00;;;;5087719;28;20439;-76
2022/01/05 10:02:06;;;;;;;0.00;0.00;;;;;23.10;99638.00;;;;5088103;28;20052;-79
2022/01/05 10:04:36;;;;;;;0.00;0.00;;;;;23.20;99659.00;;;;5088349;28;20411;-78
2022/01/05 10:07:08;;;;;;;1.05;0.50;;;;;23.40;99650.00;;;;5087685;28;20495;-75
2022/01/05 10:09:39;;;;;;;0.00;0.00;;;;;23.50;99650.00;;;;5087623;28;20044;-76
2022/01/05 10:12:12;;;;;;;0.00;0.00;;;;;23.60;99662.00;;;;5087865;28;20135;-77
2022/01/05 10:14:45;;;;;;;0.00;0.00;;;;;23.60;99654.00;;;;5087653;28;20048;-76
2022/01/05 10:17:23;;;;;;;0.00;0.00;;;;;23.70;99661.00;;;;5087596;28;20418;-75
2022/01/05 10:20:08;;;;;;;0.00;0.00;;;;;23.80;99655.00;;;;5087194;28;20818;-76
2022/01/05 10:22:40;;;;;;;0.38;0.25;;;;;23.70;99688.00;;;;5087142;28;20121;-78
2022/01/05 10:25:15;;;;;;;0.08;0.08;;;;;23.50;99701.00;;;;5087669;28;20083;-74
2022/01/05 10:28:04;;;;;;;0.00;0.00;;;;;23.60;99699.00;;;;5087264;28;20050;-74
2022/01/05 10:30:36;;;;;;;0.30;0.30;;;;;23.60;99696.00;;;;5086960;28;20513;-77
2022/01/05 10:33:06;;;;;;;0.20;0.20;;;;;23.70;99683.00;;;;5086992;28;20059;-75
2022/01/05 10:35:36;;;;;;;0.45;0.45;;;;;23.90;99695.00;;;;5086897;28;20044;-77
2022/01/05 10:38:13;;;;;;;0.00;0.00;;;;;24.00;99688.00;;;;5086340;28;20514;-75
2022/01/05 10:40:44;;;;;;;0.75;0.32;;;;;24.10;99703.00;;;;5086568;28;20046;-76
2022/01/05 10:43:14;;;;;;;0.10;0.10;;;;;24.20;99703.00;;;;5086610;28;20071;-76
2022/01/05 10:45:47;;;;;;;0.00;0.00;;;;;24.10;99702.00;;;;5087419;28;20044;-75
2022/01/05 10:48:19;;;;;;;0.00;0.00;;;;;24.20;99708.00;;;;5087550;28;20040;-76
2022/01/05 10:51:03;;;;;;;217.63;33.10;;;;;24.20;99708.00;;;;5087203;28;20043;-76
2022/01/05 10:53:33;;;;;;;1.35;0.30;;;;;24.40;99714.00;;;;5085634;28;20413;-77
2022/01/05 10:56:02;;;;;;;0.00;0.00;;;;;24.80;99697.00;;;;5086758;28;20050;-77
2022/01/05 10:58:46;;;;;;;219.73;32.90;;;;;25.00;99690.00;;;;5086399;28;20580;-75
2022/01/05 11:01:29;;;;;;;0.00;0.00;;;;;25.10;99712.00;;;;5087140;28;20070;-75
2022/01/05 11:04:13;;;;;;;0.00;0.00;;;;;25.10;99706.00;;;;5087342;28;20478;-75
2022/01/05 11:07:03;;;;;;;0.00;0.00;;;;;25.20;99704.00;;;;5087207;28;20044;-77
2022/01/05 11:09:33;;;;;;;0.00;0.00;;;;;25.50;99703.00;;;;5087656;28;20043;-77
2022/01/05 11:12:11;;;;;;;0.10;0.10;;;;;25.70;99675.00;;;;5085786;28;20052;-78
2022/01/05 11:14:40;;;;;;;0.00;0.00;;;;;26.00;99685.00;;;;5086176;28;20040;-77
2022/01/05 11:17:15;;;;;;;0.15;0.15;;;;;26.00;99677.00;;;;5086438;28;20423;-75
2022/01/05 11:19:45;;;;;;;0.63;0.55;;;;;26.30;99678.00;;;;5086408;28;20059;-75
2022/01/05 11:22:18;;;;;;;0.10;0.10;;;;;26.50;99668.00;;;;5084379;28;20419;-77
2022/01/05 11:24:54;;;;;;;3.63;1.17;;;;;26.60;99665.00;;;;5086557;28;20048;-77
2022/01/05 11:27:28;;;;;;;0.13;0.13;;;;;27.40;99640.00;;;;5086074;28;20043;-77
2022/01/05 11:29:58;;;;;;;0.55;0.55;;;;;28.00;99659.00;;;;5085217;28;20491;-76
2022/01/05 11:32:31;;;;;;;0.30;0.30;;;;;27.50;99689.00;;;;5086181;28;20047;-78
2022/01/05 11:35:04;;;;;;;0.03;0.03;;;;;27.30;99693.00;;;;5084870;28;20048;-76
2022/01/05 11:37:37;;;;;;;399.30;48.75;;;;;26.80;99727.00;;;;5086972;28;20816;-78
2022/01/05 11:40:09;;;;;;;0.00;0.00;;;;;26.30;99741.00;;;;5086066;28;20040;-77
2022/01/05 11:42:41;;;;;;;0.00;0.00;;;;;25.50;99757.00;;;;5086544;28;20453;-76
2022/01/05 11:45:11;;;;;;;0.15;0.15;;;;;24.90;99754.00;;;;5086065;28;20044;-79
2022/01/05 11:47:41;;;;;;;1.17;0.60;;;;;24.30;99751.00;;;;5086087;28;20806;-77
2022/01/05 11:50:14;;;;;;;0.00;0.00;;;;;23.70;99776.00;;;;5085210;28;20052;-78
2022/01/05 11:53:03;;;;;;;0.00;0.00;;;;;23.00;99783.00;;;;5086329;28;20073;-80
2022/01/05 11:55:56;;;;;;;0.70;0.70;;;;;22.50;99774.00;;;;5084843;28;20040;-78
2022/01/05 11:58:31;;;;;;;0.10;0.10;;;;;22.00;99785.00;;;;5085388;28;20418;-77
2022/01/05 12:01:17;;;;;;;0.00;0.00;;;;;21.70;99810.00;;;;5086132;28;20044;-77
2022/01/05 12:03:50;;;;;;;0.00;0.00;;;;;21.60;99808.00;;;;5085861;28;20040;-80
2022/01/05 12:06:20;;;;;;;0.00;0.00;;;;;21.60;99786.00;;;;5086835;28;20048;-80
2022/01/05 12:09:20;;;;;;;2.50;0.85;;;;;21.40;99808.00;;;;5086521;28;20048;-79
2022/01/05 12:11:50;;;;;;;0.00;0.00;;;;;21.50;99795.00;;;;5079812;28;20056;-80
2022/01/05 12:14:23;;;;;;;0.00;0.00;;;;;21.40;99797.00;;;;5085429;28;20048;-79
2022/01/05 12:17:02;;;;;;;0.00;0.00;;;;;21.50;99801.00;;;;5085176;28;20499;-78
2022/01/05 12:19:34;;;;;;;0.00;0.00;;;;;21.50;99804.00;;;;5085515;28;20040;-78
2022/01/05 12:22:17;;;;;;;0.00;0.00;;;;;21.50;99826.00;;;;5086506;28;20071;-78
2022/01/05 12:25:07;;;;;;;0.10;0.10;;;;;21.50;99818.00;;;;5085924;28;20123;-80
2022/01/05 12:28:02;;;;;;;0.00;0.00;;;;;21.50;99817.00;;;;5085704;28;20050;-81
2022/01/05 12:30:36;;;;;;;0.00;0.00;;;;;21.50;99826.00;;;;5078526;28;20064;-79
2022/01/05 12:33:10;;;;;;;0.00;0.00;;;;;21.60;99820.00;;;;5084007;28;20044;-78
2022/01/05 12:35:44;;;;;;;0.00;0.00;;;;;21.50;99809.00;;;;5087857;28;20044;-80
2022/01/05 12:38:32;;;;;;;0.00;0.00;;;;;21.40;99830.00;;;;5087743;28;20452;-81
2022/01/05 12:41:25;;;;;;;0.00;0.00;;;;;21.40;99838.00;;;;5087856;28;20043;-80
2022/01/05 12:43:58;;;;;;;0.00;0.00;;;;;21.40;99820.00;;;;5071884;28;20060;-77
2022/01/05 12:46:39;;;;;;;0.00;0.00;;;;;21.40;99835.00;;;;5087352;28;20039;-79